sensor_id;sensor_type;location;lat;lon;timestamp;P1;durP1;ratioP1;P2;durP2;ratioP2
31004;SDS011;17676;52.254;4.490;2023-06-22T00:01:54;30.98;;;25.55;;
31004;SDS011;17676;52.254;4.490;2023-06-22T00:04:19;31.38;;;25.38;;
31004;SDS011;17676;52.254;4.490;2023-06-22T00:06:45;29.48;;;26.02;;
31004;SDS011;17676;52.254;4.490;2023-06-22T00:09:11;29.50;;;26.27;;
31004;SDS011;17676;52.254;4.490;2023-06-22T00:11:36;29.08;;;25.90;;
31004;SDS011;17676;52.254;4.490;2023-06-22T00:14:03;33.58;;;27.88;;
31004;SDS011;17676;52.254;4.490;2023-06-22T00:16:31;29.25;;;26.00;;
31004;SDS011;17676;52.254;4.490;2023-06-22T00:18:56;33.90;;;29.02;;
31004;SDS011;17676;52.254;4.490;2023-06-22T00:21:25;32.75;;;27.88;;
31004;SDS011;17676;52.254;4.490;2023-06-22T00:23:52;38.17;;;30.55;;
31004;SDS011;17676;52.254;4.490;2023-06-22T00:26:17;36.72;;;32.22;;
31004;SDS011;17676;52.254;4.490;2023-06-22T00:28:43;43.92;;;35.42;;
31004;SDS011;17676;52.254;4.490;2023-06-22T00:31:08;41.60;;;34.75;;
31004;SDS011;17676;52.254;4.490;2023-06-22T00:33:34;40.42;;;33.78;;
31004;SDS011;17676;52.254;4.490;2023-06-22T00:36:00;40.15;;;33.30;;
31004;SDS011;17676;52.254;4.490;2023-06-22T00:38:28;42.65;;;34.28;;
31004;SDS011;17676;52.254;4.490;2023-06-22T00:40:53;39.55;;;33.67;;
31004;SDS011;17676;52.254;4.490;2023-06-22T00:43:19;40.20;;;33.25;;
31004;SDS011;17676;52.254;4.490;2023-06-22T00:45:45;40.22;;;33.80;;
31004;SDS011;17676;52.254;4.490;2023-06-22T00:48:12;42.25;;;33.97;;
31004;SDS011;17676;52.254;4.490;2023-06-22T00:50:39;41.63;;;34.67;;
31004;SDS011;17676;52.254;4.490;2023-06-22T00:53:05;41.28;;;33.90;;
31004;SDS011;17676;52.254;4.490;2023-06-22T00:55:36;44.67;;;36.08;;
31004;SDS011;17676;52.254;4.490;2023-06-22T00:58:03;42.92;;;35.13;;
31004;SDS011;17676;52.254;4.490;2023-06-22T01:00:33;46.95;;;34.30;;
31004;SDS011;17676;52.254;4.490;2023-06-22T01:02:58;43.50;;;33.30;;
31004;SDS011;17676;52.254;4.490;2023-06-22T01:05:24;46.40;;;35.65;;
31004;SDS011;17676;52.254;4.490;2023-06-22T01:10:45;47.22;;;34.90;;
31004;SDS011;17676;52.254;4.490;2023-06-22T01:16:07;47.88;;;35.42;;
31004;SDS011;17676;52.254;4.490;2023-06-22T01:18:37;48.35;;;35.60;;
31004;SDS011;17676;52.254;4.490;2023-06-22T01:21:06;44.60;;;34.63;;
31004;SDS011;17676;52.254;4.490;2023-06-22T01:29:24;44.88;;;33.90;;
31004;SDS011;17676;52.254;4.490;2023-06-22T01:31:52;44.28;;;33.53;;
31004;SDS011;17676;52.254;4.490;2023-06-22T01:34:21;48.63;;;35.53;;
31004;SDS011;17676;52.254;4.490;2023-06-22T01:36:48;44.30;;;35.58;;
31004;SDS011;17676;52.254;4.490;2023-06-22T01:39:15;48.88;;;34.30;;
31004;SDS011;17676;52.254;4.490;2023-06-22T01:41:41;42.75;;;34.90;;
31004;SDS011;17676;52.254;4.490;2023-06-22T01:44:08;40.97;;;34.42;;
31004;SDS011;17676;52.254;4.490;2023-06-22T01:46:34;43.45;;;33.35;;
31004;SDS011;17676;52.254;4.490;2023-06-22T01:49:01;40.92;;;32.20;;
31004;SDS011;17676;52.254;4.490;2023-06-22T01:51:28;43.22;;;32.97;;
31004;SDS011;17676;52.254;4.490;2023-06-22T01:53:53;46.53;;;34.70;;
31004;SDS011;17676;52.254;4.490;2023-06-22T01:56:18;42.78;;;33.38;;
31004;SDS011;17676;52.254;4.490;2023-06-22T01:58:50;42.38;;;32.72;;
31004;SDS011;17676;52.254;4.490;2023-06-22T02:01:22;47.15;;;34.00;;
31004;SDS011;17676;52.254;4.490;2023-06-22T02:06:39;44.25;;;33.85;;
31004;SDS011;17676;52.254;4.490;2023-06-22T02:09:11;41.08;;;33.83;;
31004;SDS011;17676;52.254;4.490;2023-06-22T02:11:40;46.40;;;35.60;;
31004;SDS011;17676;52.254;4.490;2023-06-22T02:14:07;45.33;;;33.90;;
31004;SDS011;17676;52.254;4.490;2023-06-22T02:16:33;46.30;;;35.83;;
31004;SDS011;17676;52.254;4.490;2023-06-22T02:19:01;49.17;;;36.75;;
31004;SDS011;17676;52.254;4.490;2023-06-22T02:21:31;54.25;;;37.40;;
31004;SDS011;17676;52.254;4.490;2023-06-22T02:23:57;47.15;;;36.25;;
31004;SDS011;17676;52.254;4.490;2023-06-22T02:26:23;45.72;;;34.15;;
31004;SDS011;17676;52.254;4.490;2023-06-22T02:28:50;50.75;;;36.80;;
31004;SDS011;17676;52.254;4.490;2023-06-22T02:31:16;47.17;;;34.90;;
31004;SDS011;17676;52.254;4.490;2023-06-22T02:33:43;50.90;;;36.05;;
31004;SDS011;17676;52.254;4.490;2023-06-22T02:36:08;51.38;;;39.50;;
31004;SDS011;17676;52.254;4.490;2023-06-22T02:38:35;50.78;;;36.05;;
31004;SDS011;17676;52.254;4.490;2023-06-22T02:41:01;49.47;;;37.05;;
31004;SDS011;17676;52.254;4.490;2023-06-22T02:43:27;51.58;;;35.47;;
31004;SDS011;17676;52.254;4.490;2023-06-22T02:45:53;48.10;;;37.60;;
31004;SDS011;17676;52.254;4.490;2023-06-22T02:48:19;47.70;;;36.92;;
31004;SDS011;17676;52.254;4.490;2023-06-22T02:50:44;49.72;;;37.67;;
31004;SDS011;17676;52.254;4.490;2023-06-22T02:53:09;52.53;;;38.55;;
31004;SDS011;17676;52.254;4.490;2023-06-22T02:55:35;48.30;;;36.08;;
31004;SDS011;17676;52.254;4.490;2023-06-22T02:58:00;53.92;;;38.20;;
31004;SDS011;17676;52.254;4.490;2023-06-22T03:00:30;49.20;;;35.85;;
31004;SDS011;17676;52.254;4.490;2023-06-22T03:02:56;51.47;;;37.28;;
31004;SDS011;17676;52.254;4.490;2023-06-22T03:05:22;49.63;;;35.13;;
31004;SDS011;17676;52.254;4.490;2023-06-22T03:07:48;50.17;;;37.25;;
31004;SDS011;17676;52.254;4.490;2023-06-22T03:10:15;53.83;;;37.20;;
31004;SDS011;17676;52.254;4.490;2023-06-22T03:12:41;56.65;;;37.67;;
31004;SDS011;17676;52.254;4.490;2023-06-22T03:15:09;54.30;;;39.70;;
31004;SDS011;17676;52.254;4.490;2023-06-22T03:17:38;56.30;;;39.03;;
31004;SDS011;17676;52.254;4.490;2023-06-22T03:20:05;54.50;;;37.55;;
31004;SDS011;17676;52.254;4.490;2023-06-22T03:22:35;54.25;;;37.72;;
31004;SDS011;17676;52.254;4.490;2023-06-22T03:25:01;50.55;;;37.03;;
31004;SDS011;17676;52.254;4.490;2023-06-22T03:27:27;52.85;;;37.22;;
31004;SDS011;17676;52.254;4.490;2023-06-22T03:29:53;50.22;;;37.15;;
31004;SDS011;17676;52.254;4.490;2023-06-22T03:32:18;53.78;;;37.88;;
31004;SDS011;17676;52.254;4.490;2023-06-22T03:34:44;54.38;;;37.78;;
31004;SDS011;17676;52.254;4.490;2023-06-22T03:37:15;54.90;;;38.13;;
31004;SDS011;17676;52.254;4.490;2023-06-22T03:39:41;57.03;;;38.20;;
31004;SDS011;17676;52.254;4.490;2023-06-22T03:42:07;52.28;;;38.35;;
31004;SDS011;17676;52.254;4.490;2023-06-22T03:44:33;56.47;;;38.30;;
31004;SDS011;17676;52.254;4.490;2023-06-22T03:47:00;51.75;;;37.30;;
31004;SDS011;17676;52.254;4.490;2023-06-22T03:49:27;54.97;;;39.50;;
31004;SDS011;17676;52.254;4.490;2023-06-22T03:51:52;60.85;;;41.30;;
31004;SDS011;17676;52.254;4.490;2023-06-22T03:54:18;54.58;;;37.47;;
31004;SDS011;17676;52.254;4.490;2023-06-22T03:56:44;49.97;;;37.00;;
31004;SDS011;17676;52.254;4.490;2023-06-22T03:59:10;49.15;;;37.47;;
31004;SDS011;17676;52.254;4.490;2023-06-22T04:01:35;49.25;;;36.90;;
31004;SDS011;17676;52.254;4.490;2023-06-22T04:04:01;51.15;;;37.22;;
31004;SDS011;17676;52.254;4.490;2023-06-22T04:06:27;53.22;;;37.05;;
31004;SDS011;17676;52.254;4.490;2023-06-22T04:08:52;48.35;;;35.92;;
31004;SDS011;17676;52.254;4.490;2023-06-22T04:11:18;56.28;;;38.35;;
31004;SDS011;17676;52.254;4.490;2023-06-22T04:13:44;54.65;;;39.92;;
31004;SDS011;17676;52.254;4.490;2023-06-22T04:16:09;58.15;;;39.65;;
31004;SDS011;17676;52.254;4.490;2023-06-22T04:18:35;48.90;;;36.40;;
31004;SDS011;17676;52.254;4.490;2023-06-22T04:21:01;52.45;;;38.28;;
31004;SDS011;17676;52.254;4.490;2023-06-22T04:23:28;52.55;;;37.03;;
31004;SDS011;17676;52.254;4.490;2023-06-22T04:25:54;50.83;;;36.88;;
31004;SDS011;17676;52.254;4.490;2023-06-22T04:28:21;53.33;;;37.25;;
31004;SDS011;17676;52.254;4.490;2023-06-22T04:30:47;47.58;;;36.20;;
31004;SDS011;17676;52.254;4.490;2023-06-22T04:33:15;51.28;;;37.25;;
31004;SDS011;17676;52.254;4.490;2023-06-22T04:35:42;53.17;;;35.40;;
31004;SDS011;17676;52.254;4.490;2023-06-22T04:38:11;47.95;;;36.22;;
31004;SDS011;17676;52.254;4.490;2023-06-22T04:40:38;45.35;;;34.42;;
31004;SDS011;17676;52.254;4.490;2023-06-22T04:43:04;45.45;;;34.38;;
31004;SDS011;17676;52.254;4.490;2023-06-22T04:45:31;46.38;;;34.75;;
31004;SDS011;17676;52.254;4.490;2023-06-22T04:47:57;47.72;;;34.95;;
31004;SDS011;17676;52.254;4.490;2023-06-22T04:50:23;44.28;;;33.67;;
31004;SDS011;17676;52.254;4.490;2023-06-22T04:52:49;43.47;;;34.40;;
31004;SDS011;17676;52.254;4.490;2023-06-22T04:55:15;48.38;;;34.60;;
31004;SDS011;17676;52.254;4.490;2023-06-22T04:57:47;45.35;;;34.17;;
31004;SDS011;17676;52.254;4.490;2023-06-22T05:00:14;43.97;;;35.28;;
31004;SDS011;17676;52.254;4.490;2023-06-22T05:02:42;43.75;;;33.88;;
31004;SDS011;17676;52.254;4.490;2023-06-22T05:05:10;38.97;;;31.38;;
31004;SDS011;17676;52.254;4.490;2023-06-22T05:07:39;35.20;;;29.48;;
31004;SDS011;17676;52.254;4.490;2023-06-22T05:10:08;39.17;;;32.45;;
31004;SDS011;17676;52.254;4.490;2023-06-22T05:12:38;38.60;;;31.67;;
31004;SDS011;17676;52.254;4.490;2023-06-22T05:15:04;39.25;;;30.63;;
31004;SDS011;17676;52.254;4.490;2023-06-22T05:17:31;38.88;;;31.45;;
31004;SDS011;17676;52.254;4.490;2023-06-22T05:19:56;41.28;;;32.42;;
31004;SDS011;17676;52.254;4.490;2023-06-22T05:22:22;38.10;;;31.73;;
31004;SDS011;17676;52.254;4.490;2023-06-22T05:24:47;39.78;;;31.80;;
31004;SDS011;17676;52.254;4.490;2023-06-22T05:27:13;38.80;;;31.35;;
31004;SDS011;17676;52.254;4.490;2023-06-22T05:29:39;36.65;;;30.20;;
31004;SDS011;17676;52.254;4.490;2023-06-22T05:32:05;40.13;;;30.27;;
31004;SDS011;17676;52.254;4.490;2023-06-22T05:34:31;37.35;;;30.10;;
31004;SDS011;17676;52.254;4.490;2023-06-22T05:36:57;38.38;;;30.38;;
31004;SDS011;17676;52.254;4.490;2023-06-22T05:39:23;38.88;;;30.45;;
31004;SDS011;17676;52.254;4.490;2023-06-22T05:41:49;32.58;;;28.50;;
31004;SDS011;17676;52.254;4.490;2023-06-22T05:44:14;37.28;;;29.98;;
31004;SDS011;17676;52.254;4.490;2023-06-22T05:46:41;42.00;;;31.50;;
31004;SDS011;17676;52.254;4.490;2023-06-22T05:49:12;37.10;;;30.70;;
31004;SDS011;17676;52.254;4.490;2023-06-22T05:51:37;36.72;;;29.67;;
31004;SDS011;17676;52.254;4.490;2023-06-22T05:54:03;38.30;;;30.02;;
31004;SDS011;17676;52.254;4.490;2023-06-22T05:56:29;36.45;;;29.73;;
31004;SDS011;17676;52.254;4.490;2023-06-22T05:58:54;33.63;;;28.10;;
31004;SDS011;17676;52.254;4.490;2023-06-22T06:01:20;36.20;;;29.27;;
31004;SDS011;17676;52.254;4.490;2023-06-22T06:03:46;32.60;;;28.52;;
31004;SDS011;17676;52.254;4.490;2023-06-22T06:06:12;30.90;;;27.63;;
31004;SDS011;17676;52.254;4.490;2023-06-22T06:08:38;29.75;;;25.05;;
31004;SDS011;17676;52.254;4.490;2023-06-22T06:11:04;33.33;;;27.75;;
31004;SDS011;17676;52.254;4.490;2023-06-22T06:13:30;31.83;;;26.25;;
31004;SDS011;17676;52.254;4.490;2023-06-22T06:15:56;31.13;;;24.48;;
31004;SDS011;17676;52.254;4.490;2023-06-22T06:18:22;28.75;;;24.20;;
31004;SDS011;17676;52.254;4.490;2023-06-22T06:20:48;30.92;;;24.80;;
31004;SDS011;17676;52.254;4.490;2023-06-22T06:23:13;25.98;;;22.77;;
31004;SDS011;17676;52.254;4.490;2023-06-22T06:25:39;26.02;;;21.50;;
31004;SDS011;17676;52.254;4.490;2023-06-22T06:28:05;24.02;;;21.35;;
31004;SDS011;17676;52.254;4.490;2023-06-22T06:30:31;22.38;;;20.05;;
31004;SDS011;17676;52.254;4.490;2023-06-22T06:32:57;22.92;;;18.98;;
31004;SDS011;17676;52.254;4.490;2023-06-22T06:35:23;21.38;;;19.23;;
31004;SDS011;17676;52.254;4.490;2023-06-22T06:37:49;21.05;;;18.95;;
31004;SDS011;17676;52.254;4.490;2023-06-22T06:40:16;22.48;;;18.40;;
31004;SDS011;17676;52.254;4.490;2023-06-22T06:42:46;21.25;;;17.77;;
31004;SDS011;17676;52.254;4.490;2023-06-22T06:45:17;19.20;;;15.85;;
31004;SDS011;17676;52.254;4.490;2023-06-22T06:47:44;16.10;;;14.40;;
31004;SDS011;17676;52.254;4.490;2023-06-22T06:50:10;15.20;;;13.70;;
31004;SDS011;17676;52.254;4.490;2023-06-22T06:52:36;18.98;;;14.20;;
31004;SDS011;17676;52.254;4.490;2023-06-22T06:55:02;14.82;;;13.35;;
31004;SDS011;17676;52.254;4.490;2023-06-22T06:57:29;14.80;;;13.27;;
31004;SDS011;17676;52.254;4.490;2023-06-22T06:59:56;14.70;;;13.05;;
31004;SDS011;17676;52.254;4.490;2023-06-22T07:02:22;13.50;;;12.20;;
31004;SDS011;17676;52.254;4.490;2023-06-22T07:04:48;17.27;;;13.18;;
31004;SDS011;17676;52.254;4.490;2023-06-22T07:07:14;13.27;;;12.15;;
31004;SDS011;17676;52.254;4.490;2023-06-22T07:09:40;14.45;;;12.93;;
31004;SDS011;17676;52.254;4.490;2023-06-22T07:12:06;13.55;;;12.35;;
31004;SDS011;17676;52.254;4.490;2023-06-22T07:14:32;14.50;;;12.57;;
31004;SDS011;17676;52.254;4.490;2023-06-22T07:16:58;13.98;;;12.65;;
31004;SDS011;17676;52.254;4.490;2023-06-22T07:19:27;13.18;;;11.98;;
31004;SDS011;17676;52.254;4.490;2023-06-22T07:21:53;13.00;;;12.00;;
31004;SDS011;17676;52.254;4.490;2023-06-22T07:24:20;13.25;;;12.05;;
31004;SDS011;17676;52.254;4.490;2023-06-22T07:26:49;13.50;;;12.20;;
31004;SDS011;17676;52.254;4.490;2023-06-22T07:29:18;13.50;;;12.27;;
31004;SDS011;17676;52.254;4.490;2023-06-22T07:31:46;14.52;;;13.00;;
31004;SDS011;17676;52.254;4.490;2023-06-22T07:34:13;13.85;;;12.65;;
31004;SDS011;17676;52.254;4.490;2023-06-22T07:36:38;15.35;;;13.95;;
31004;SDS011;17676;52.254;4.490;2023-06-22T07:39:04;15.68;;;14.27;;
31004;SDS011;17676;52.254;4.490;2023-06-22T07:41:30;13.63;;;12.45;;
31004;SDS011;17676;52.254;4.490;2023-06-22T07:43:56;14.20;;;13.00;;
31004;SDS011;17676;52.254;4.490;2023-06-22T07:46:21;16.23;;;14.65;;
31004;SDS011;17676;52.254;4.490;2023-06-22T07:48:47;17.83;;;16.33;;
31004;SDS011;17676;52.254;4.490;2023-06-22T07:51:13;17.52;;;15.73;;
31004;SDS011;17676;52.254;4.490;2023-06-22T07:53:42;17.23;;;15.63;;
31004;SDS011;17676;52.254;4.490;2023-06-22T07:56:10;14.73;;;13.20;;
31004;SDS011;17676;52.254;4.490;2023-06-22T07:58:36;21.05;;;12.38;;
31004;SDS011;17676;52.254;4.490;2023-06-22T08:01:02;12.07;;;10.73;;
31004;SDS011;17676;52.254;4.490;2023-06-22T08:03:28;15.07;;;10.85;;
31004;SDS011;17676;52.254;4.490;2023-06-22T08:05:54;11.73;;;10.75;;
31004;SDS011;17676;52.254;4.490;2023-06-22T08:08:20;11.93;;;10.82;;
31004;SDS011;17676;52.254;4.490;2023-06-22T08:10:45;12.15;;;10.30;;
31004;SDS011;17676;52.254;4.490;2023-06-22T08:13:11;9.60;;;8.10;;
31004;SDS011;17676;52.254;4.490;2023-06-22T08:15:36;9.38;;;8.48;;
31004;SDS011;17676;52.254;4.490;2023-06-22T08:18:02;7.50;;;6.30;;
31004;SDS011;17676;52.254;4.490;2023-06-22T08:20:28;7.05;;;6.10;;
31004;SDS011;17676;52.254;4.490;2023-06-22T08:22:55;8.35;;;7.22;;
31004;SDS011;17676;52.254;4.490;2023-06-22T08:25:22;6.80;;;6.20;;
31004;SDS011;17676;52.254;4.490;2023-06-22T08:27:48;6.13;;;5.63;;
31004;SDS011;17676;52.254;4.490;2023-06-22T08:30:14;5.85;;;5.30;;
31004;SDS011;17676;52.254;4.490;2023-06-22T08:32:40;7.45;;;5.95;;
31004;SDS011;17676;52.254;4.490;2023-06-22T08:35:05;7.13;;;5.05;;
31004;SDS011;17676;52.254;4.490;2023-06-22T08:37:34;5.85;;;5.25;;
31004;SDS011;17676;52.254;4.490;2023-06-22T08:40:01;5.93;;;5.32;;
31004;SDS011;17676;52.254;4.490;2023-06-22T08:42:33;5.60;;;5.07;;
31004;SDS011;17676;52.254;4.490;2023-06-22T08:44:58;5.90;;;5.15;;
31004;SDS011;17676;52.254;4.490;2023-06-22T08:47:24;9.43;;;6.43;;
31004;SDS011;17676;52.254;4.490;2023-06-22T08:49:50;7.15;;;6.50;;
31004;SDS011;17676;52.254;4.490;2023-06-22T08:52:16;5.80;;;5.20;;
31004;SDS011;17676;52.254;4.490;2023-06-22T08:54:43;6.18;;;5.57;;
31004;SDS011;17676;52.254;4.490;2023-06-22T08:57:10;9.98;;;6.50;;
31004;SDS011;17676;52.254;4.490;2023-06-22T08:59:35;6.72;;;5.25;;
31004;SDS011;17676;52.254;4.490;2023-06-22T09:02:01;4.35;;;4.05;;
31004;SDS011;17676;52.254;4.490;2023-06-22T09:04:26;5.75;;;4.90;;
31004;SDS011;17676;52.254;4.490;2023-06-22T09:06:52;10.65;;;6.47;;
31004;SDS011;17676;52.254;4.490;2023-06-22T09:09:18;7.55;;;6.25;;
31004;SDS011;17676;52.254;4.490;2023-06-22T09:11:44;7.15;;;6.45;;
31004;SDS011;17676;52.254;4.490;2023-06-22T09:14:09;7.18;;;6.45;;
31004;SDS011;17676;52.254;4.490;2023-06-22T09:16:36;7.63;;;6.93;;
31004;SDS011;17676;52.254;4.490;2023-06-22T09:19:02;7.22;;;6.53;;
31004;SDS011;17676;52.254;4.490;2023-06-22T09:21:27;8.35;;;7.57;;
31004;SDS011;17676;52.254;4.490;2023-06-22T09:23:53;10.48;;;9.50;;
31004;SDS011;17676;52.254;4.490;2023-06-22T09:26:19;9.50;;;8.60;;
31004;SDS011;17676;52.254;4.490;2023-06-22T09:28:46;9.65;;;8.48;;
31004;SDS011;17676;52.254;4.490;2023-06-22T09:31:12;9.82;;;7.85;;
31004;SDS011;17676;52.254;4.490;2023-06-22T09:33:39;8.85;;;6.78;;
31004;SDS011;17676;52.254;4.490;2023-06-22T09:36:05;7.05;;;6.38;;
31004;SDS011;17676;52.254;4.490;2023-06-22T09:38:34;10.95;;;8.82;;
31004;SDS011;17676;52.254;4.490;2023-06-22T09:41:00;8.55;;;7.68;;
31004;SDS011;17676;52.254;4.490;2023-06-22T09:43:26;9.20;;;8.40;;
31004;SDS011;17676;52.254;4.490;2023-06-22T09:45:52;10.88;;;7.72;;
31004;SDS011;17676;52.254;4.490;2023-06-22T09:48:18;9.40;;;7.72;;
31004;SDS011;17676;52.254;4.490;2023-06-22T09:50:46;7.70;;;7.00;;
31004;SDS011;17676;52.254;4.490;2023-06-22T09:53:11;7.97;;;6.53;;
31004;SDS011;17676;52.254;4.490;2023-06-22T09:55:37;7.60;;;6.60;;
31004;SDS011;17676;52.254;4.490;2023-06-22T09:58:02;7.18;;;5.63;;
31004;SDS011;17676;52.254;4.490;2023-06-22T10:00:28;6.55;;;5.95;;
31004;SDS011;17676;52.254;4.490;2023-06-22T10:02:54;6.07;;;5.47;;
31004;SDS011;17676;52.254;4.490;2023-06-22T10:05:21;5.65;;;3.75;;
31004;SDS011;17676;52.254;4.490;2023-06-22T10:07:47;10.60;;;4.57;;
31004;SDS011;17676;52.254;4.490;2023-06-22T10:10:12;7.95;;;4.95;;
31004;SDS011;17676;52.254;4.490;2023-06-22T10:12:42;6.43;;;5.82;;
31004;SDS011;17676;52.254;4.490;2023-06-22T10:15:10;7.50;;;6.82;;
31004;SDS011;17676;52.254;4.490;2023-06-22T10:17:36;10.15;;;8.02;;
31004;SDS011;17676;52.254;4.490;2023-06-22T10:20:02;8.70;;;7.00;;
31004;SDS011;17676;52.254;4.490;2023-06-22T10:22:35;9.65;;;7.53;;
31004;SDS011;17676;52.254;4.490;2023-06-22T10:25:01;8.00;;;7.20;;
31004;SDS011;17676;52.254;4.490;2023-06-22T10:27:27;9.60;;;7.95;;
31004;SDS011;17676;52.254;4.490;2023-06-22T10:29:52;9.73;;;8.93;;
31004;SDS011;17676;52.254;4.490;2023-06-22T10:32:18;8.50;;;7.63;;
31004;SDS011;17676;52.254;4.490;2023-06-22T10:34:44;7.03;;;6.07;;
31004;SDS011;17676;52.254;4.490;2023-06-22T10:37:10;8.48;;;7.68;;
31004;SDS011;17676;52.254;4.490;2023-06-22T10:39:35;7.50;;;6.88;;
31004;SDS011;17676;52.254;4.490;2023-06-22T10:42:01;8.50;;;7.60;;
31004;SDS011;17676;52.254;4.490;2023-06-22T10:44:27;8.48;;;7.72;;
31004;SDS011;17676;52.254;4.490;2023-06-22T10:46:52;10.88;;;9.23;;
31004;SDS011;17676;52.254;4.490;2023-06-22T10:49:18;12.90;;;11.05;;
31004;SDS011;17676;52.254;4.490;2023-06-22T10:51:43;12.30;;;11.02;;
31004;SDS011;17676;52.254;4.490;2023-06-22T10:54:09;11.25;;;9.50;;
31004;SDS011;17676;52.254;4.490;2023-06-22T10:56:35;11.45;;;10.35;;
31004;SDS011;17676;52.254;4.490;2023-06-22T10:59:00;10.05;;;8.98;;
31004;SDS011;17676;52.254;4.490;2023-06-22T11:01:26;10.70;;;9.35;;
31004;SDS011;17676;52.254;4.490;2023-06-22T11:03:53;10.73;;;9.57;;
31004;SDS011;17676;52.254;4.490;2023-06-22T11:06:18;11.40;;;8.93;;
31004;SDS011;17676;52.254;4.490;2023-06-22T11:08:44;11.13;;;9.13;;
31004;SDS011;17676;52.254;4.490;2023-06-22T11:11:10;9.57;;;8.68;;
31004;SDS011;17676;52.254;4.490;2023-06-22T11:13:36;11.00;;;9.30;;
31004;SDS011;17676;52.254;4.490;2023-06-22T11:16:01;8.50;;;7.78;;
31004;SDS011;17676;52.254;4.490;2023-06-22T11:18:27;9.07;;;7.13;;
31004;SDS011;17676;52.254;4.490;2023-06-22T11:20:53;8.65;;;7.90;;
31004;SDS011;17676;52.254;4.490;2023-06-22T11:23:18;9.57;;;7.60;;
31004;SDS011;17676;52.254;4.490;2023-06-22T11:25:44;9.98;;;6.75;;
31004;SDS011;17676;52.254;4.490;2023-06-22T11:28:11;6.75;;;6.15;;
31004;SDS011;17676;52.254;4.490;2023-06-22T11:30:36;6.82;;;6.22;;
31004;SDS011;17676;52.254;4.490;2023-06-22T11:33:02;8.65;;;7.30;;
31004;SDS011;17676;52.254;4.490;2023-06-22T11:35:27;7.70;;;6.47;;
31004;SDS011;17676;52.254;4.490;2023-06-22T11:37:56;5.82;;;5.28;;
31004;SDS011;17676;52.254;4.490;2023-06-22T11:40:21;5.88;;;5.32;;
31004;SDS011;17676;52.254;4.490;2023-06-22T11:42:48;7.95;;;6.00;;
31004;SDS011;17676;52.254;4.490;2023-06-22T11:45:13;5.38;;;4.75;;
31004;SDS011;17676;52.254;4.490;2023-06-22T11:47:39;9.57;;;8.68;;
31004;SDS011;17676;52.254;4.490;2023-06-22T11:50:04;9.98;;;9.07;;
31004;SDS011;17676;52.254;4.490;2023-06-22T11:52:31;10.25;;;7.43;;
31004;SDS011;17676;52.254;4.490;2023-06-22T11:55:01;8.90;;;8.05;;
31004;SDS011;17676;52.254;4.490;2023-06-22T11:57:28;9.07;;;8.30;;
31004;SDS011;17676;52.254;4.490;2023-06-22T11:59:54;10.75;;;8.90;;
31004;SDS011;17676;52.254;4.490;2023-06-22T12:02:20;10.70;;;9.68;;
31004;SDS011;17676;52.254;4.490;2023-06-22T12:04:45;13.30;;;11.65;;
31004;SDS011;17676;52.254;4.490;2023-06-22T12:07:11;15.05;;;11.57;;
31004;SDS011;17676;52.254;4.490;2023-06-22T12:09:37;13.82;;;12.50;;
31004;SDS011;17676;52.254;4.490;2023-06-22T12:12:03;14.40;;;13.07;;
31004;SDS011;17676;52.254;4.490;2023-06-22T12:14:29;14.88;;;13.43;;
31004;SDS011;17676;52.254;4.490;2023-06-22T12:16:54;15.40;;;12.52;;
31004;SDS011;17676;52.254;4.490;2023-06-22T12:19:20;14.38;;;12.88;;
31004;SDS011;17676;52.254;4.490;2023-06-22T12:21:45;16.33;;;14.73;;
31004;SDS011;17676;52.254;4.490;2023-06-22T12:24:11;14.38;;;13.05;;
31004;SDS011;17676;52.254;4.490;2023-06-22T12:26:36;18.95;;;15.40;;
31004;SDS011;17676;52.254;4.490;2023-06-22T12:29:02;15.57;;;13.98;;
31004;SDS011;17676;52.254;4.490;2023-06-22T12:31:28;14.65;;;13.27;;
31004;SDS011;17676;52.254;4.490;2023-06-22T12:33:53;16.33;;;14.70;;
31004;SDS011;17676;52.254;4.490;2023-06-22T12:36:19;15.32;;;13.70;;
31004;SDS011;17676;52.254;4.490;2023-06-22T12:38:44;15.35;;;13.13;;
31004;SDS011;17676;52.254;4.490;2023-06-22T12:41:10;16.42;;;13.68;;
31004;SDS011;17676;52.254;4.490;2023-06-22T12:43:36;16.33;;;13.55;;
31004;SDS011;17676;52.254;4.490;2023-06-22T12:46:01;12.73;;;11.43;;
31004;SDS011;17676;52.254;4.490;2023-06-22T12:48:27;13.45;;;12.15;;
31004;SDS011;17676;52.254;4.490;2023-06-22T12:50:53;13.02;;;11.73;;
31004;SDS011;17676;52.254;4.490;2023-06-22T12:53:18;16.85;;;12.52;;
31004;SDS011;17676;52.254;4.490;2023-06-22T12:55:44;13.43;;;11.63;;
31004;SDS011;17676;52.254;4.490;2023-06-22T12:58:10;13.80;;;12.40;;
31004;SDS011;17676;52.254;4.490;2023-06-22T13:00:35;13.55;;;12.35;;
31004;SDS011;17676;52.254;4.490;2023-06-22T13:03:01;13.40;;;12.15;;
31004;SDS011;17676;52.254;4.490;2023-06-22T13:05:26;13.73;;;12.40;;
31004;SDS011;17676;52.254;4.490;2023-06-22T13:07:52;14.77;;;12.52;;
31004;SDS011;17676;52.254;4.490;2023-06-22T13:10:17;12.82;;;11.52;;
31004;SDS011;17676;52.254;4.490;2023-06-22T13:12:44;12.98;;;11.65;;
31004;SDS011;17676;52.254;4.490;2023-06-22T13:15:10;14.60;;;13.07;;
31004;SDS011;17676;52.254;4.490;2023-06-22T13:17:35;12.32;;;11.13;;
31004;SDS011;17676;52.254;4.490;2023-06-22T13:20:01;19.10;;;12.20;;
31004;SDS011;17676;52.254;4.490;2023-06-22T13:22:30;20.35;;;11.93;;
31004;SDS011;17676;52.254;4.490;2023-06-22T13:24:57;14.68;;;11.15;;
31004;SDS011;17676;52.254;4.490;2023-06-22T13:27:23;14.02;;;11.18;;
31004;SDS011;17676;52.254;4.490;2023-06-22T13:29:49;18.20;;;10.82;;
31004;SDS011;17676;52.254;4.490;2023-06-22T13:32:15;11.95;;;10.43;;
31004;SDS011;17676;52.254;4.490;2023-06-22T13:34:41;10.93;;;9.85;;
31004;SDS011;17676;52.254;4.490;2023-06-22T13:37:07;11.45;;;10.00;;
31004;SDS011;17676;52.254;4.490;2023-06-22T13:39:33;12.13;;;9.50;;
31004;SDS011;17676;52.254;4.490;2023-06-22T13:41:58;10.73;;;9.52;;
31004;SDS011;17676;52.254;4.490;2023-06-22T13:44:24;10.32;;;8.63;;
31004;SDS011;17676;52.254;4.490;2023-06-22T13:46:54;9.93;;;8.93;;
31004;SDS011;17676;52.254;4.490;2023-06-22T13:49:20;9.18;;;8.27;;
31004;SDS011;17676;52.254;4.490;2023-06-22T13:51:46;8.60;;;7.28;;
31004;SDS011;17676;52.254;4.490;2023-06-22T13:54:13;11.60;;;9.23;;
31004;SDS011;17676;52.254;4.490;2023-06-22T13:56:38;9.05;;;8.30;;
31004;SDS011;17676;52.254;4.490;2023-06-22T13:59:04;11.75;;;8.75;;
31004;SDS011;17676;52.254;4.490;2023-06-22T14:01:31;9.57;;;8.27;;
31004;SDS011;17676;52.254;4.490;2023-06-22T14:03:57;10.00;;;9.05;;
31004;SDS011;17676;52.254;4.490;2023-06-22T14:06:22;10.63;;;9.65;;
31004;SDS011;17676;52.254;4.490;2023-06-22T14:08:48;12.10;;;8.32;;
31004;SDS011;17676;52.254;4.490;2023-06-22T14:11:14;11.73;;;10.13;;
31004;SDS011;17676;52.254;4.490;2023-06-22T14:13:40;13.30;;;9.30;;
31004;SDS011;17676;52.254;4.490;2023-06-22T14:16:07;9.90;;;8.85;;
31004;SDS011;17676;52.254;4.490;2023-06-22T14:18:33;11.30;;;9.77;;
31004;SDS011;17676;52.254;4.490;2023-06-22T14:20:59;9.13;;;8.23;;
31004;SDS011;17676;52.254;4.490;2023-06-22T14:23:24;9.70;;;8.50;;
31004;SDS011;17676;52.254;4.490;2023-06-22T14:25:50;10.68;;;7.55;;
31004;SDS011;17676;52.254;4.490;2023-06-22T14:28:15;8.75;;;7.30;;
31004;SDS011;17676;52.254;4.490;2023-06-22T14:30:41;7.45;;;6.35;;
31004;SDS011;17676;52.254;4.490;2023-06-22T14:33:07;7.10;;;6.40;;
31004;SDS011;17676;52.254;4.490;2023-06-22T14:35:33;8.43;;;6.07;;
31004;SDS011;17676;52.254;4.490;2023-06-22T14:37:58;7.03;;;5.57;;